Time;durP1;ratioP1;P1;durP2;ratioP2;P2;SDS_P1;SDS_P2;PMS_P1;PMS_P2;Temp;Humidity;BMP_temperature;BMP_pressure;BME280_temperature;BME280_humidity;BME280_pressure;Samples;Min_cycle;Max_cycle;Signal;HPM_P1;HPM_P2
2023/03/12 00:00:25;;;;;;;8.65;2.78;;;;;;;-146.25;100.00;52469.56;2097050;28;28579;-76
2023/03/12 00:01:28;;;;;;;5.68;2.35;;;;;;;-146.25;100.00;52439.16;2097252;28;37161;-76
2023/03/12 00:02:31;;;;;;;5.53;2.40;;;;;;;-146.25;100.00;52459.44;2097242;28;31201;-76
2023/03/12 00:03:33;;;;;;;8.50;2.63;;;;;;;-146.25;100.00;52443.22;2097586;28;35620;-76
2023/03/12 00:04:35;;;;;;;7.63;2.53;;;;;;;-146.25;100.00;52463.50;2097303;28;37973;-77
2023/03/12 00:05:39;;;;;;;8.73;2.28;;;;;;;-146.25;100.00;52427.00;2098654;28;20829;-76
2023/03/12 00:06:41;;;;;;;6.55;2.22;;;;;;;-146.25;100.00;52481.75;2101352;28;36242;-77
2023/03/12 00:07:42;;;;;;;7.03;2.80;;;;;;;-146.25;100.00;52435.09;2105943;28;33629;-76
2023/03/12 00:08:44;;;;;;;9.30;2.15;;;;;;;-146.25;100.00;52439.16;2106149;28;20083;-78
2023/03/12 00:09:46;;;;;;;6.68;2.38;;;;;;;-146.25;100.00;52441.19;2105995;28;37677;-75
2023/03/12 00:10:48;;;;;;;4.95;2.17;;;;;;;-146.25;100.00;52455.38;2105705;28;32934;-76
2023/03/12 00:11:49;;;;;;;7.07;2.20;;;;;;;-146.25;100.00;52404.69;2105943;28;34674;-75
2023/03/12 00:12:51;;;;;;;6.93;2.40;;;;;;;-146.25;100.00;52431.06;2105486;28;20143;-76
2023/03/12 00:13:57;;;;;;;5.30;2.33;;;;;;;-146.25;100.00;52457.41;2096714;28;36455;-76
2023/03/12 00:14:59;;;;;;;7.10;2.10;;;;;;;-146.25;100.00;52449.31;2097069;28;34141;-75
2023/03/12 00:16:09;;;;;;;6.45;2.45;;;;;;;-146.25;100.00;52449.31;2105339;28;27670;-75
2023/03/12 00:17:10;;;;;;;8.98;2.45;;;;;;;-146.25;100.00;52469.56;2105999;28;33771;-76
2023/03/12 00:18:12;;;;;;;7.13;2.13;;;;;;;-146.25;100.00;52459.44;2113888;28;20155;-76
2023/03/12 00:19:14;;;;;;;9.73;2.38;;;;;;;-146.25;100.00;52427.00;2112958;28;32241;-77
2023/03/12 00:20:19;;;;;;;6.63;2.00;;;;;;;-146.25;100.00;52433.06;2105797;28;34856;-76
2023/03/12 00:21:22;;;;;;;6.15;2.10;;;;;;;-146.25;100.00;52429.03;2106141;28;20053;-76
2023/03/12 00:22:24;;;;;;;8.27;2.40;;;;;;;-146.25;100.00;52463.50;2096296;28;36527;-76
2023/03/12 00:23:27;;;;;;;6.20;2.13;;;;;;;-146.25;100.00;52453.34;2088950;28;34927;-76
2023/03/12 00:24:28;;;;;;;4.55;2.20;;;;;;;-146.25;100.00;52445.25;2105073;28;32550;-77
2023/03/12 00:25:30;;;;;;;9.68;2.42;;;;;;;-146.25;100.00;52455.38;2104902;28;36933;-77
2023/03/12 00:26:32;;;;;;;6.57;2.15;;;;;;;-146.25;100.00;52451.31;2096811;28;30061;-76
2023/03/12 00:27:34;;;;;;;4.28;2.03;;;;;;;-146.25;100.00;52435.09;2105805;28;20044;-77
2023/03/12 00:28:36;;;;;;;6.13;1.90;;;;;;;-146.25;100.00;52424.97;2096295;28;33395;-76
2023/03/12 00:29:38;;;;;;;5.80;2.10;;;;;;;-146.25;100.00;52451.31;2097652;28;20033;-77
2023/03/12 00:30:41;;;;;;;4.97;2.15;;;;;;;-146.25;100.00;52424.97;2105879;28;20094;-77
2023/03/12 00:31:43;;;;;;;4.45;2.65;;;;;;;-146.25;100.00;52422.94;2104906;28;32778;-77
2023/03/12 00:32:45;;;;;;;7.65;2.58;;;;;;;-146.25;100.00;52469.56;2105186;28;30519;-77
2023/03/12 00:33:48;;;;;;;6.13;2.15;;;;;;;-146.25;100.00;52429.03;2097047;28;20041;-76
2023/03/12 00:34:53;;;;;;;8.77;2.35;;;;;;;-146.25;100.00;52445.25;2097751;28;20045;-76
2023/03/12 00:35:59;;;;;;;7.88;2.20;;;;;;;-146.25;100.00;52443.22;2097664;28;23640;-77
2023/03/12 00:37:03;;;;;;;10.05;2.45;;;;;;;-146.25;100.00;52461.47;2089406;28;20911;-77
2023/03/12 00:38:05;;;;;;;9.23;2.58;;;;;;;-146.25;100.00;52437.13;2097668;28;30701;-76
2023/03/12 00:39:07;;;;;;;6.35;2.08;;;;;;;-146.25;100.00;52463.50;2105531;28;33619;-77
2023/03/12 00:40:10;;;;;;;5.75;2.10;;;;;;;-146.25;100.00;52457.41;2104424;28;32481;-76
2023/03/12 00:41:12;;;;;;;8.57;2.30;;;;;;;-146.25;100.00;52451.31;2106227;28;20113;-77
2023/03/12 00:42:17;;;;;;;5.30;1.73;;;;;;;-146.25;100.00;52429.03;2105116;28;20891;-76
2023/03/12 00:43:21;;;;;;;7.57;2.25;;;;;;;-146.25;100.00;52453.34;2105661;28;20045;-76
2023/03/12 00:44:23;;;;;;;7.82;2.10;;;;;;;-146.25;100.00;52459.44;2105637;28;23609;-76
2023/03/12 00:45:24;;;;;;;10.50;2.55;;;;;;;-146.25;100.00;52479.72;2104792;28;31299;-76
2023/03/12 00:46:29;;;;;;;5.90;1.98;;;;;;;-146.25;100.00;52495.94;2105330;28;20040;-77
2023/03/12 00:47:31;;;;;;;7.68;2.35;;;;;;;-146.25;100.00;52431.06;2105524;28;31699;-78
2023/03/12 00:48:33;;;;;;;6.30;2.20;;;;;;;-146.25;100.00;52451.31;2104922;28;20053;-78
2023/03/12 00:49:35;;;;;;;4.85;1.83;;;;;;;-146.25;100.00;52491.88;2105663;28;20898;-77
2023/03/12 00:50:37;;;;;;;6.38;2.30;;;;;;;-146.25;100.00;52447.28;2113701;28;25423;-76
2023/03/12 00:51:38;;;;;;;8.68;2.40;;;;;;;-146.25;100.00;52433.06;2105232;28;20033;-77
2023/03/12 00:52:40;;;;;;;7.80;2.38;;;;;;;-146.25;100.00;52461.47;2104850;28;30094;-77
2023/03/12 00:53:44;;;;;;;5.85;1.80;;;;;;;-146.25;100.00;52453.34;2105518;28;20032;-78
2023/03/12 00:54:46;;;;;;;6.68;2.00;;;;;;;-146.25;100.00;52412.81;2105450;28;30454;-79
2023/03/12 00:55:48;;;;;;;4.72;2.10;;;;;;;-146.25;100.00;52447.28;2106150;28;20882;-77
2023/03/12 00:56:49;;;;;;;4.18;1.73;;;;;;;-146.25;100.00;52465.53;2105066;28;20020;-78
2023/03/12 00:57:54;;;;;;;6.65;2.28;;;;;;;-146.25;100.00;52441.19;2105465;28;20163;-77
2023/03/12 00:58:56;;;;;;;5.57;1.98;;;;;;;-146.25;100.00;52433.06;2105167;28;20158;-78
2023/03/12 00:59:57;;;;;;;3.38;1.90;;;;;;;-146.25;100.00;52445.25;2097086;28;20041;-77
2023/03/12 01:01:02;;;;;;;5.05;2.20;;;;;;;-146.25;100.00;52416.84;2104779;28;24074;-77
2023/03/12 01:02:04;;;;;;;6.40;2.15;;;;;;;-146.25;100.00;52435.09;2105393;28;29898;-77
2023/03/12 01:03:05;;;;;;;8.85;2.00;;;;;;;-146.25;100.00;52435.09;2105218;28;20036;-78
2023/03/12 01:04:08;;;;;;;7.45;2.33;;;;;;;-146.25;100.00;52455.38;2097107;28;28674;-77
2023/03/12 01:05:14;;;;;;;6.38;2.22;;;;;;;-146.25;100.00;52463.50;2105156;28;20135;-76
2023/03/12 01:06:19;;;;;;;5.57;2.13;;;;;;;-146.25;100.00;52394.56;2096541;28;33954;-77
2023/03/12 01:07:20;;;;;;;6.25;2.03;;;;;;;-146.25;100.00;52445.25;2089508;28;21810;-77
2023/03/12 01:08:23;;;;;;;8.38;2.05;;;;;;;-146.25;100.00;52471.59;2105453;28;20037;-76
2023/03/12 01:09:25;;;;;;;6.93;2.10;;;;;;;-146.25;100.00;52463.50;2104667;28;20228;-76
2023/03/12 01:10:27;;;;;;;4.55;1.90;;;;;;;-146.25;100.00;52475.66;2096596;28;26412;-75
2023/03/12 01:11:31;;;;;;;7.15;2.35;;;;;;;-146.25;100.00;52443.22;2095902;28;31741;-76
2023/03/12 01:12:36;;;;;;;3.75;1.80;;;;;;;-146.25;100.00;52469.56;2105361;28;20043;-76
2023/03/12 01:13:38;;;;;;;4.90;2.30;;;;;;;-146.25;100.00;52461.47;2104850;28;20055;-76
2023/03/12 01:14:39;;;;;;;4.97;1.83;;;;;;;-146.25;100.00;52443.22;2105516;28;20041;-77
2023/03/12 01:15:42;;;;;;;9.98;2.67;;;;;;;-146.25;100.00;52491.88;2104890;28;20056;-78
2023/03/12 01:16:44;;;;;;;7.78;2.47;;;;;;;-146.25;100.00;52441.19;2096699;28;20045;-77
2023/03/12 01:17:46;;;;;;;7.38;2.30;;;;;;;-146.25;100.00;52461.47;2096812;28;20048;-77
2023/03/12 01:18:48;;;;;;;4.50;2.00;;;;;;;-146.25;100.00;52459.44;2104848;28;29403;-77
2023/03/12 01:19:50;;;;;;;7.20;2.35;;;;;;;-146.25;100.00;52455.38;2105160;28;29146;-77
2023/03/12 01:20:52;;;;;;;7.93;2.28;;;;;;;-146.25;100.00;52441.19;2106047;28;20045;-77
2023/03/12 01:21:54;;;;;;;6.25;2.45;;;;;;;-146.25;100.00;52453.34;2104168;28;36040;-77
2023/03/12 01:22:55;;;;;;;4.10;1.88;;;;;;;-146.25;100.00;52467.56;2106136;28;20909;-76
2023/03/12 01:23:58;;;;;;;8.35;2.55;;;;;;;-146.25;100.00;52465.53;2105269;28;24969;-77
2023/03/12 01:24:59;;;;;;;5.97;2.53;;;;;;;-146.25;100.00;52477.69;2105238;28;20036;-78
2023/03/12 01:26:10;;;;;;;;;;;;;;;-146.25;100.00;52461.47;2106443;28;20032;-72
2023/03/12 01:27:11;;;;;;;5.32;2.08;;;;;;;-146.25;100.00;52469.56;2113151;28;31218;-69
2023/03/12 01:28:13;;;;;;;6.05;2.10;;;;;;;-146.25;100.00;52447.28;2113571;28;20166;-70
2023/03/12 01:29:15;;;;;;;5.78;2.38;;;;;;;-146.25;100.00;52449.31;2113829;28;20936;-70
2023/03/12 01:30:17;;;;;;;6.43;2.53;;;;;;;-146.25;100.00;52443.22;2105494;28;20596;-70
2023/03/12 01:31:19;;;;;;;8.75;2.70;;;;;;;-146.25;100.00;52457.41;2105939;28;20040;-70
2023/03/12 01:32:21;;;;;;;6.18;2.10;;;;;;;-146.25;100.00;52422.94;2096191;28;28941;-70
2023/03/12 01:33:23;;;;;;;7.38;2.35;;;;;;;-146.25;100.00;52431.06;2088951;28;20095;-70
2023/03/12 01:34:25;;;;;;;7.78;2.45;;;;;;;-146.25;100.00;52453.34;2097330;28;20115;-72
2023/03/12 01:35:27;;;;;;;5.45;2.60;;;;;;;-146.25;100.00;52459.44;2104603;28;33655;-70
2023/03/12 01:36:30;;;;;;;7.78;2.92;;;;;;;-146.25;100.00;52471.59;2104431;28;30740;-71
2023/03/12 01:37:32;;;;;;;9.88;2.70;;;;;;;-146.25;100.00;52461.47;2104733;28;26353;-71
2023/03/12 01:38:34;;;;;;;9.57;3.10;;;;;;;-146.25;100.00;52477.69;2104994;28;22736;-75
2023/03/12 01:39:36;;;;;;;7.68;2.72;;;;;;;-146.25;100.00;52443.22;2105468;28;20446;-72
2023/03/12 01:40:39;;;;;;;7.60;3.05;;;;;;;-146.25;100.00;52410.78;2104537;28;21187;-77
2023/03/12 01:41:41;;;;;;;5.47;2.85;;;;;;;-146.25;100.00;52439.16;2104923;28;24104;-79
2023/03/12 01:42:50;;;;;;;7.53;3.25;;;;;;;-146.25;100.00;52459.44;2104673;28;20052;-77
2023/03/12 01:43:52;;;;;;;6.00;2.78;;;;;;;-146.25;100.00;52445.25;2097772;28;20045;-78
2023/03/12 01:45:01;;;;;;;7.72;2.63;;;;;;;-146.25;100.00;52422.94;2104678;28;20802;-77
2023/03/12 01:46:23;;;;;;;8.35;2.78;;;;;;;-146.25;100.00;52402.66;2089883;28;20050;-76
2023/03/12 01:47:30;;;;;;;;;;;;;;;-146.25;100.00;52473.63;2095118;28;20041;-77
2023/03/12 01:48:39;;;;;;;6.15;2.65;;;;;;;-146.25;100.00;52461.47;2104958;28;20070;-78
2023/03/12 01:49:41;;;;;;;5.65;2.58;;;;;;;-146.25;100.00;52447.28;2106044;28;20044;-77
2023/03/12 01:50:44;;;;;;;9.00;2.85;;;;;;;-146.25;100.00;52475.66;2113517;27;20126;-77
2023/03/12 01:52:00;;;;;;;5.32;2.88;;;;;;;-146.25;100.00;52467.56;2104646;28;20049;-77
2023/03/12 01:53:06;;;;;;;8.73;2.88;;;;;;;-146.25;100.00;52453.34;2104926;28;20754;-77
2023/03/12 01:54:18;;;;;;;5.63;2.88;;;;;;;-146.25;100.00;52443.22;2096585;28;20033;-77
2023/03/12 01:55:20;;;;;;;6.28;3.20;;;;;;;-146.25;100.00;52422.94;2098000;28;20037;-78
2023/03/12 01:56:27;;;;;;;9.43;3.38;;;;;;;-146.25;100.00;52487.81;2105328;28;20072;-77
2023/03/12 01:58:00;;;;;;;8.13;3.35;;;;;;;-146.25;100.00;52465.53;2104932;28;20848;-77
2023/03/12 01:59:12;;;;;;;6.35;3.00;;;;;;;-146.25;100.00;52477.69;2105389;28;20049;-77
2023/03/12 02:00:25;;;;;;;7.28;3.60;;;;;;;-146.25;100.00;52453.34;2104511;28;20089;-78
2023/03/12 02:01:29;;;;;;;7.35;3.05;;;;;;;-146.25;100.00;52422.94;2104677;28;20037;-76
2023/03/12 02:02:32;;;;;;;4.93;2.47;;;;;;;-146.25;100.00;52457.41;2105374;28;20044;-76
2023/03/12 02:03:35;;;;;;;7.40;3.30;;;;;;;-146.25;100.00;52457.41;2104742;28;20052;-78
2023/03/12 02:04:39;;;;;;;7.43;3.70;;;;;;;-146.25;100.00;52461.47;2097269;28;20443;-78
2023/03/12 02:05:50;;;;;;;8.20;2.88;;;;;;;-146.25;100.00;52441.19;2097086;28;20037;-77
2023/03/12 02:07:08;;;;;;;5.43;2.72;;;;;;;-146.25;100.00;52449.31;2104801;28;31661;-78
2023/03/12 02:08:12;;;;;;;8.55;3.00;;;;;;;-146.25;100.00;52424.97;2104767;28;20118;-76
2023/03/12 02:09:19;;;;;;;5.88;2.88;;;;;;;-146.25;100.00;52424.97;2105468;28;20141;-77
2023/03/12 02:10:23;;;;;;;8.55;3.33;;;;;;;-146.25;100.00;52491.88;2095953;28;20182;-77
2023/03/12 02:11:26;;;;;;;12.23;3.70;;;;;;;-146.25;100.00;52469.56;2089800;28;20034;-77
2023/03/12 02:12:27;;;;;;;6.03;3.50;;;;;;;-146.25;100.00;52485.81;2096135;28;20045;-76
2023/03/12 02:13:29;;;;;;;7.43;3.92;;;;;;;-146.25;100.00;52475.66;2104922;28;20218;-77
2023/03/12 02:14:31;;;;;;;7.25;3.70;;;;;;;-146.25;100.00;52497.97;2105116;28;20033;-77
2023/03/12 02:15:35;;;;;;;6.72;3.88;;;;;;;-146.25;100.00;52453.34;2105526;28;24806;-76
2023/03/12 02:16:37;;;;;;;10.45;3.38;;;;;;;-146.25;100.00;52459.44;2096049;28;20049;-77
2023/03/12 02:17:42;;;;;;;6.63;3.63;;;;;;;-146.25;100.00;52477.69;2096965;28;20087;-76
2023/03/12 02:18:45;;;;;;;7.63;3.70;;;;;;;-146.25;100.00;52445.25;2104615;28;20936;-76
2023/03/12 02:20:11;;;;;;;8.98;3.53;;;;;;;-146.25;100.00;52453.34;2105412;28;20045;-76
2023/03/12 02:21:28;;;;;;;5.78;3.13;;;;;;;-146.25;100.00;52465.53;2110466;28;26972;-76
2023/03/12 02:22:30;;;;;;;5.80;3.40;;;;;;;-146.25;100.00;52485.81;2105371;28;20043;-76
2023/03/12 02:23:42;;;;;;;8.30;3.80;;;;;;;-146.25;100.00;52445.25;2105685;28;20134;-76
2023/03/12 02:24:52;;;;;;;6.57;3.72;;;;;;;-146.25;100.00;52463.50;2105600;28;20041;-76
2023/03/12 02:25:56;;;;;;;8.85;4.22;;;;;;;-146.25;100.00;52457.41;2105494;28;31589;-76
2023/03/12 02:27:00;;;;;;;9.20;3.55;;;;;;;-146.25;100.00;52469.56;2103720;28;20049;-77
2023/03/12 02:28:06;;;;;;;5.93;3.50;;;;;;;-146.25;100.00;52443.22;2105090;28;20076;-76
2023/03/12 02:29:11;;;;;;;9.30;3.97;;;;;;;-146.25;100.00;52431.06;2096161;28;20041;-76
2023/03/12 02:30:15;;;;;;;7.68;3.53;;;;;;;-146.25;100.00;52461.47;2089565;28;20029;-75
2023/03/12 02:31:24;;;;;;;4.88;3.20;;;;;;;-146.25;100.00;52463.50;2096541;28;20057;-77
2023/03/12 02:32:34;;;;;;;8.10;4.28;;;;;;;-146.25;100.00;52439.16;2089479;28;20283;-76
2023/03/12 02:33:37;;;;;;;7.50;3.80;;;;;;;-146.25;100.00;52449.31;2098021;28;20037;-75
2023/03/12 02:34:39;;;;;;;8.77;3.70;;;;;;;-146.25;100.00;52485.81;2104775;28;20049;-78
2023/03/12 02:35:46;;;;;;;9.90;4.30;;;;;;;-146.25;100.00;52477.69;2104725;28;20040;-76
2023/03/12 02:36:48;;;;;;;7.22;4.25;;;;;;;-146.25;100.00;52463.50;2096398;28;20898;-77
2023/03/12 02:37:54;;;;;;;6.63;4.05;;;;;;;-146.25;100.00;52497.97;2088275;28;20126;-76
2023/03/12 02:38:56;;;;;;;9.15;4.30;;;;;;;-146.25;100.00;52447.28;2081093;28;20034;-77
2023/03/12 02:40:14;;;;;;;9.07;4.10;;;;;;;-146.25;100.00;52465.53;2096539;28;20822;-77
2023/03/12 02:41:23;;;;;;;8.57;4.00;;;;;;;-146.25;100.00;52461.47;2104233;28;27233;-76
2023/03/12 02:42:25;;;;;;;5.07;3.42;;;;;;;-146.25;100.00;52489.84;2105066;28;20032;-76
2023/03/12 02:43:27;;;;;;;10.15;4.05;;;;;;;-146.25;100.00;52437.13;2095969;28;20050;-76
2023/03/12 02:44:32;;;;;;;8.02;3.78;;;;;;;-146.25;100.00;52451.31;2097418;28;20804;-76
2023/03/12 02:45:36;;;;;;;11.75;4.10;;;;;;;-146.25;100.00;52473.63;2096406;28;20033;-76
2023/03/12 02:46:44;;;;;;;6.72;4.00;;;;;;;-146.25;100.00;52455.38;2096884;28;24230;-76
2023/03/12 02:47:47;;;;;;;7.60;3.58;;;;;;;-146.25;100.00;52443.22;2105337;28;20163;-76
2023/03/12 02:48:50;;;;;;;9.40;4.43;;;;;;;-146.25;100.00;52451.31;2104426;28;20033;-77
2023/03/12 02:49:52;;;;;;;7.15;4.30;;;;;;;-146.25;100.00;52467.56;2096331;28;20044;-77
2023/03/12 02:50:54;;;;;;;6.15;3.63;;;;;;;-146.25;100.00;52491.88;2104654;28;20028;-77
2023/03/12 02:51:56;;;;;;;8.93;4.50;;;;;;;-146.25;100.00;52497.97;2104774;28;20040;-77
2023/03/12 02:52:58;;;;;;;12.23;4.88;;;;;;;-146.25;100.00;52473.63;2105577;28;20049;-76
2023/03/12 02:54:00;;;;;;;5.90;3.90;;;;;;;-146.25;100.00;52435.09;2105056;28;20118;-76
2023/03/12 02:55:02;;;;;;;6.38;3.80;;;;;;;-146.25;100.00;52433.06;2104445;28;20044;-77
2023/03/12 02:56:08;;;;;;;7.55;4.25;;;;;;;-146.25;100.00;52471.59;2104293;28;20064;-77
2023/03/12 02:57:10;;;;;;;7.22;4.03;;;;;;;-146.25;100.00;52437.13;2104325;28;20087;-77
2023/03/12 02:58:12;;;;;;;6.53;3.70;;;;;;;-146.25;100.00;52497.97;2104555;28;20040;-76
2023/03/12 02:59:15;;;;;;;7.22;4.63;;;;;;;-146.25;100.00;52437.13;2104618;28;20041;-77
2023/03/12 03:00:19;;;;;;;6.70;3.50;;;;;;;-146.25;100.00;52457.41;2102109;28;20049;-76
2023/03/12 03:01:26;;;;;;;3.95;3.00;;;;;;;-146.25;100.00;52449.31;2096131;28;20045;-77
2023/03/12 03:02:28;;;;;;;5.85;3.45;;;;;;;-146.25;100.00;52453.34;2086920;28;20050;-76
2023/03/12 03:03:30;;;;;;;7.40;4.28;;;;;;;-146.25;100.00;52439.16;2088125;28;20944;-77
2023/03/12 03:04:34;;;;;;;9.25;4.10;;;;;;;-146.25;100.00;52479.72;2095593;28;20049;-76
2023/03/12 03:05:36;;;;;;;6.68;4.28;;;;;;;-146.25;100.00;52451.31;2095977;28;20095;-77
2023/03/12 03:06:42;;;;;;;7.35;3.88;;;;;;;-146.25;100.00;52441.19;2103523;28;25371;-76
2023/03/12 03:07:45;;;;;;;10.93;4.22;;;;;;;-146.25;100.00;52465.53;2095486;28;20045;-76
2023/03/12 03:08:46;;;;;;;8.07;3.40;;;;;;;-146.25;100.00;52493.91;2088112;28;21912;-76
2023/03/12 03:09:48;;;;;;;7.78;4.15;;;;;;;-146.25;100.00;52473.63;2096277;28;20048;-75
2023/03/12 03:10:51;;;;;;;8.90;3.88;;;;;;;-146.25;100.00;52493.91;2095234;28;20048;-77
2023/03/12 03:11:53;;;;;;;14.13;4.18;;;;;;;-146.25;100.00;52437.13;2087766;28;20167;-76
2023/03/12 03:12:56;;;;;;;12.45;4.30;;;;;;;-146.25;100.00;52471.59;2095554;28;20038;-76
2023/03/12 03:13:58;;;;;;;8.25;4.22;;;;;;;-146.25;100.00;52424.97;2104411;28;20084;-76
2023/03/12 03:15:03;;;;;;;9.40;4.32;;;;;;;-146.25;100.00;52465.53;2104200;28;20048;-76
2023/03/12 03:16:06;;;;;;;7.28;4.50;;;;;;;-146.25;100.00;52469.56;2104134;28;20826;-76
2023/03/12 03:17:07;;;;;;;6.10;4.07;;;;;;;-146.25;100.00;52445.25;2095978;28;23337;-76
2023/03/12 03:18:09;;;;;;;12.55;5.05;;;;;;;-146.25;100.00;52435.09;2096371;28;20040;-77
2023/03/12 03:19:11;;;;;;;6.60;3.97;;;;;;;-146.25;100.00;52424.97;2096005;28;20794;-77
2023/03/12 03:20:15;;;;;;;8.73;4.78;;;;;;;-146.25;100.00;52465.53;2096236;28;23512;-77
2023/03/12 03:21:19;;;;;;;7.15;4.80;;;;;;;-146.25;100.00;52455.38;2105194;28;20044;-76
2023/03/12 03:22:22;;;;;;;8.88;3.80;;;;;;;-146.25;100.00;52469.56;2095878;28;21247;-76
2023/03/12 03:23:24;;;;;;;8.95;5.13;;;;;;;-146.25;100.00;52465.53;2095719;28;20250;-76
2023/03/12 03:24:26;;;;;;;12.35;4.80;;;;;;;-146.25;100.00;52453.34;2096140;28;20041;-76
2023/03/12 03:25:32;;;;;;;7.18;3.97;;;;;;;-146.25;100.00;52447.28;2096154;28;20061;-76
2023/03/12 03:26:34;;;;;;;8.80;5.18;;;;;;;-146.25;100.00;52463.50;2095248;28;20084;-76
2023/03/12 03:27:36;;;;;;;8.48;4.47;;;;;;;-146.25;100.00;52463.50;2095948;28;21127;-76
2023/03/12 03:28:40;;;;;;;7.28;3.95;;;;;;;-146.25;100.00;52459.44;2095519;28;20922;-76
2023/03/12 03:29:45;;;;;;;7.32;4.03;;;;;;;-146.25;100.00;52447.28;2096195;28;20280;-77
2023/03/12 03:30:48;;;;;;;9.15;4.43;;;;;;;-146.25;100.00;52487.81;2096022;28;20949;-76
2023/03/12 03:31:50;;;;;;;8.63;4.38;;;;;;;-146.25;100.00;52463.50;2087596;28;20037;-76
2023/03/12 03:32:51;;;;;;;11.70;4.85;;;;;;;-146.25;100.00;52473.63;2096005;28;20037;-77
2023/03/12 03:33:53;;;;;;;7.65;4.20;;;;;;;-146.25;100.00;52465.53;2095745;28;20072;-76
2023/03/12 03:34:55;;;;;;;7.93;4.32;;;;;;;-146.25;100.00;52439.16;2096064;28;26440;-76
2023/03/12 03:35:59;;;;;;;8.27;4.53;;;;;;;-146.25;100.00;52447.28;2095931;28;20815;-77
2023/03/12 03:37:02;;;;;;;8.15;4.30;;;;;;;-146.25;100.00;52453.34;2087339;28;20153;-76
2023/03/12 03:38:06;;;;;;;5.65;4.18;;;;;;;-146.25;100.00;52439.16;2087398;28;20089;-76
2023/03/12 03:39:08;;;;;;;11.05;4.30;;;;;;;-146.25;100.00;52437.13;2087075;28;20918;-77
2023/03/12 03:40:12;;;;;;;9.60;4.32;;;;;;;-146.25;100.00;52465.53;2095559;28;20041;-77
2023/03/12 03:41:17;;;;;;;8.23;4.20;;;;;;;-146.25;100.00;52447.28;2104887;28;20052;-76
2023/03/12 03:42:19;;;;;;;10.05;4.10;;;;;;;-146.25;100.00;52447.28;2103602;28;20048;-76
2023/03/12 03:43:22;;;;;;;7.72;4.03;;;;;;;-146.25;100.00;52433.06;2103897;28;20761;-77
2023/03/12 03:44:25;;;;;;;8.13;4.00;;;;;;;-146.25;100.00;52433.06;2103905;28;20237;-76
2023/03/12 03:45:27;;;;;;;9.95;4.60;;;;;;;-146.25;100.00;52441.19;2103786;28;20044;-76
2023/03/12 03:46:31;;;;;;;7.72;4.13;;;;;;;-146.25;100.00;52439.16;2103550;28;20048;-77
2023/03/12 03:47:36;;;;;;;6.90;4.65;;;;;;;-146.25;100.00;52443.22;2103814;28;20043;-77
2023/03/12 03:48:39;;;;;;;10.52;4.22;;;;;;;-146.25;100.00;52445.25;2104512;28;20036;-77
2023/03/12 03:49:42;;;;;;;10.43;3.67;;;;;;;-146.25;100.00;52443.22;2095423;28;20041;-77
2023/03/12 03:50:46;;;;;;;8.07;4.38;;;;;;;-146.25;100.00;52451.31;2095872;28;20180;-77
2023/03/12 03:51:50;;;;;;;8.98;4.53;;;;;;;-146.25;100.00;52443.22;2103706;28;20133;-76
2023/03/12 03:52:58;;;;;;;10.45;4.15;;;;;;;-146.25;100.00;52412.81;2087368;28;20045;-76
2023/03/12 03:54:00;;;;;;;8.98;4.22;;;;;;;-146.25;100.00;52412.81;2095090;28;20041;-77
2023/03/12 03:55:04;;;;;;;5.68;4.07;;;;;;;-146.25;100.00;52453.34;2095613;28;20045;-77
2023/03/12 03:56:09;;;;;;;8.13;4.32;;;;;;;-146.25;100.00;52455.38;2095176;28;20037;-77
2023/03/12 03:57:15;;;;;;;8.98;4.22;;;;;;;-146.25;100.00;52483.78;2086791;28;20045;-77
2023/03/12 03:58:17;;;;;;;10.13;4.20;;;;;;;-146.25;100.00;52449.31;2087233;28;20164;-77
2023/03/12 03:59:19;;;;;;;6.65;3.92;;;;;;;-146.25;100.00;52461.47;2086647;28;20577;-77
2023/03/12 04:00:21;;;;;;;9.15;3.88;;;;;;;-146.25;100.00;52493.91;2103528;28;20049;-77
2023/03/12 04:01:26;;;;;;;10.13;4.40;;;;;;;-146.25;100.00;52431.06;2103863;28;20846;-77
2023/03/12 04:02:29;;;;;;;5.88;3.90;;;;;;;-146.25;100.00;52469.56;2095312;28;20214;-77
2023/03/12 04:03:34;;;;;;;8.52;4.00;;;;;;;-146.25;100.00;52431.06;2095459;28;20044;-77
2023/03/12 04:04:37;;;;;;;6.65;3.50;;;;;;;-146.25;100.00;52457.41;2087387;28;20042;-77
2023/03/12 04:05:45;;;;;;;11.25;4.05;;;;;;;-146.25;100.00;52489.84;2090554;28;20180;-77
2023/03/12 04:06:47;;;;;;;6.70;4.10;;;;;;;-146.25;100.00;52514.19;2099724;28;20041;-77
2023/03/12 04:07:52;;;;;;;7.32;4.13;;;;;;;-146.25;100.00;52516.22;2095601;28;20167;-78
2023/03/12 04:09:00;;;;;;;6.85;4.43;;;;;;;-146.25;100.00;52459.44;2104920;28;20060;-77
2023/03/12 04:10:05;;;;;;;9.25;4.50;;;;;;;-146.25;100.00;52483.78;2104261;28;20156;-77
2023/03/12 04:11:19;;;;;;;8.45;4.18;;;;;;;-146.25;100.00;52445.25;2106140;28;20052;-77
2023/03/12 04:12:24;;;;;;;6.18;3.80;;;;;;;-146.25;100.00;52477.69;2095673;28;20045;-77
2023/03/12 04:13:26;;;;;;;8.88;4.32;;;;;;;-146.25;100.00;52467.56;2096606;28;20136;-77
2023/03/12 04:14:28;;;;;;;6.85;4.40;;;;;;;-146.25;100.00;52526.34;2106264;28;20040;-77
2023/03/12 04:15:30;;;;;;;8.95;4.55;;;;;;;-146.25;100.00;52473.63;2104992;28;20045;-77
2023/03/12 04:16:34;;;;;;;6.63;4.28;;;;;;;-146.25;100.00;52491.88;2105668;28;20033;-77
2023/03/12 04:17:37;;;;;;;7.63;4.40;;;;;;;-146.25;100.00;52471.59;2105344;28;20049;-78
2023/03/12 04:18:39;;;;;;;9.30;4.70;;;;;;;-146.25;100.00;52502.03;2096574;28;20071;-77
2023/03/12 04:19:41;;;;;;;10.02;4.22;;;;;;;-146.25;100.00;52491.88;2097273;28;20064;-77
2023/03/12 04:20:43;;;;;;;6.28;4.18;;;;;;;-146.25;100.00;52506.06;2097015;28;22391;-78
2023/03/12 04:21:45;;;;;;;8.05;4.15;;;;;;;-146.25;100.00;52475.66;2088663;28;20151;-78
2023/03/12 04:22:47;;;;;;;10.65;4.20;;;;;;;-146.25;100.00;52469.56;2097021;28;23781;-77
2023/03/12 04:23:50;;;;;;;8.10;4.43;;;;;;;-146.25;100.00;52512.16;2104766;28;20860;-77
2023/03/12 04:24:54;;;;;;;10.20;4.78;;;;;;;-146.25;100.00;52502.03;2105597;28;20091;-77
2023/03/12 04:25:56;;;;;;;6.88;4.05;;;;;;;-146.25;100.00;52479.72;2098062;28;20101;-77
2023/03/12 04:26:58;;;;;;;7.63;4.60;;;;;;;-146.25;100.00;52510.13;2088365;28;20163;-76
2023/03/12 04:28:00;;;;;;;6.43;4.57;;;;;;;-146.25;100.00;52522.28;2088174;28;20038;-77
2023/03/12 04:29:02;;;;;;;9.52;4.50;;;;;;;-146.25;100.00;52497.97;2088579;28;20898;-78
2023/03/12 04:30:05;;;;;;;9.32;4.32;;;;;;;-146.25;100.00;52500.00;2088564;28;20040;-77
2023/03/12 04:31:11;;;;;;;8.52;4.32;;;;;;;-146.25;100.00;52455.38;2088102;28;20049;-76
2023/03/12 04:32:21;;;;;;;9.77;4.65;;;;;;;-146.25;100.00;52489.84;2090088;28;20038;-78
2023/03/12 04:33:24;;;;;;;8.07;4.55;;;;;;;-146.25;100.00;52493.91;2096674;28;20041;-77
2023/03/12 04:34:26;;;;;;;8.40;4.47;;;;;;;-146.25;100.00;52508.09;2088210;28;20790;-78
2023/03/12 04:35:29;;;;;;;7.00;4.55;;;;;;;-146.25;100.00;52512.16;2080502;28;20045;-77
2023/03/12 04:36:31;;;;;;;11.32;5.30;;;;;;;-146.25;100.00;52483.78;2083119;28;20606;-78
2023/03/12 04:37:36;;;;;;;10.85;4.75;;;;;;;-146.25;100.00;52469.56;2087434;28;20152;-78
2023/03/12 04:38:38;;;;;;;8.30;4.90;;;;;;;-146.25;100.00;52491.88;2089812;28;20042;-78
2023/03/12 04:39:42;;;;;;;8.32;4.53;;;;;;;-146.25;100.00;52463.50;2096737;28;20053;-78
2023/03/12 04:40:44;;;;;;;8.63;5.78;;;;;;;-146.25;100.00;52485.81;2097161;28;20094;-77
2023/03/12 04:41:46;;;;;;;8.32;5.35;;;;;;;-146.25;100.00;52514.19;2088624;28;20893;-77
2023/03/12 04:42:50;;;;;;;9.05;5.00;;;;;;;-146.25;100.00;52491.88;2089011;28;21053;-78
2023/03/12 04:43:53;;;;;;;10.32;4.97;;;;;;;-146.25;100.00;52510.13;2096685;28;20041;-78
2023/03/12 04:44:55;;;;;;;9.82;5.00;;;;;;;-146.25;100.00;52487.81;2106578;28;20617;-81
2023/03/12 04:46:00;;;;;;;10.18;5.22;;;;;;;-146.25;100.00;52493.91;2096607;28;27500;-77
2023/03/12 04:47:03;;;;;;;11.93;5.40;;;;;;;-146.25;100.00;52500.00;2089433;28;20103;-78
2023/03/12 04:48:05;;;;;;;8.93;5.15;;;;;;;-146.25;100.00;52530.41;2096682;28;20036;-78
2023/03/12 04:49:07;;;;;;;7.97;5.20;;;;;;;-146.25;100.00;52491.88;2096706;28;30445;-78
2023/03/12 04:50:12;;;;;;;8.73;4.68;;;;;;;-146.25;100.00;52471.59;2097179;28;20917;-80